createdAt,value
2022-10-05T00:00:54.111Z,64.95
2022-10-05T00:01:56.793Z,64.90
2022-10-05T00:02:58.625Z,64.89
2022-10-05T00:04:18.787Z,64.91
2022-10-05T00:05:27.537Z,64.88
2022-10-05T00:06:29.117Z,64.80
2022-10-05T00:07:30.593Z,65.01
2022-10-05T00:08:32.910Z,64.87
2022-10-05T00:09:34.358Z,65.08
2022-10-05T00:10:35.896Z,65.02
2022-10-05T00:11:37.369Z,65.14
2022-10-05T00:12:38.859Z,64.95
2022-10-05T00:13:40.415Z,64.92
2022-10-05T00:14:41.985Z,64.88
2022-10-05T00:15:43.596Z,64.91
2022-10-05T00:16:45.375Z,64.90
2022-10-05T00:17:47.121Z,64.83
2022-10-05T00:18:49.318Z,64.85
2022-10-05T00:19:53.880Z,64.84
2022-10-05T00:20:55.415Z,64.91
2022-10-05T00:21:58.582Z,64.96
2022-10-05T00:23:01.055Z,64.82
2022-10-05T00:24:02.670Z,64.76
2022-10-05T00:25:08.107Z,64.78
2022-10-05T00:26:14.440Z,64.83
2022-10-05T00:27:19.181Z,64.80
2022-10-05T00:28:26.773Z,64.84
2022-10-05T00:29:28.357Z,64.78
2022-10-05T00:30:32.988Z,64.66
2022-10-05T00:31:34.551Z,64.69
2022-10-05T00:32:36.098Z,64.54
2022-10-05T00:33:37.605Z,64.68
2022-10-05T00:34:39.092Z,64.55
2022-10-05T00:35:40.579Z,64.76
2022-10-05T00:36:42.179Z,64.78
2022-10-05T00:37:43.856Z,64.95
2022-10-05T00:38:45.341Z,64.77
2022-10-05T00:39:46.795Z,64.75
2022-10-05T00:41:05.723Z,65.08
2022-10-05T00:42:22.197Z,64.95
2022-10-05T00:43:44.940Z,64.80
2022-10-05T00:44:46.472Z,64.75
2022-10-05T00:45:49.022Z,64.69
2022-10-05T00:46:56.716Z,64.70
2022-10-05T00:47:58.268Z,65.09
2022-10-05T00:49:00.211Z,65.09
2022-10-05T00:50:04.673Z,65.92
2022-10-05T00:51:26.372Z,66.04
2022-10-05T00:52:46.756Z,66.02
2022-10-05T00:54:18.603Z,66.06
2022-10-05T00:55:29.250Z,65.88
2022-10-05T00:56:30.719Z,66.50
2022-10-05T00:57:32.246Z,66.34
2022-10-05T00:58:52.339Z,66.42
2022-10-05T01:00:09.433Z,66.24
2022-10-05T01:01:15.336Z,66.14
2022-10-05T01:02:34.373Z,66.05
2022-10-05T01:03:40.497Z,66.36
2022-10-05T01:04:59.452Z,66.39
2022-10-05T01:06:04.008Z,67.10
2022-10-05T01:07:28.428Z,67.23
2022-10-05T01:08:30.004Z,67.18
2022-10-05T01:09:40.337Z,67.25
2022-10-05T01:10:44.649Z,67.15
2022-10-05T01:11:49.039Z,67.24
2022-10-05T01:12:53.149Z,67.10
2022-10-05T01:13:54.615Z,66.95
2022-10-05T01:14:59.937Z,67.06
2022-10-05T01:16:10.441Z,66.95
2022-10-05T01:17:30.431Z,66.79
2022-10-05T01:18:34.319Z,66.76
2022-10-05T01:19:44.459Z,67.03
2022-10-05T01:20:52.012Z,66.73
2022-10-05T01:22:16.639Z,67.07
2022-10-05T01:23:21.075Z,67.70
2022-10-05T01:24:22.495Z,67.72
2022-10-05T01:25:23.940Z,67.53
2022-10-05T01:26:28.157Z,67.48
2022-10-05T01:27:32.574Z,67.38
2022-10-05T01:28:46.165Z,67.34
2022-10-05T01:29:49.021Z,67.44
2022-10-05T01:30:50.528Z,67.25
2022-10-05T01:31:55.478Z,67.14
2022-10-05T01:32:59.576Z,67.36
2022-10-05T01:34:21.220Z,67.54
2022-10-05T01:35:22.868Z,67.08
2022-10-05T01:36:24.507Z,67.29
2022-10-05T01:37:39.544Z,67.32
2022-10-05T01:38:52.910Z,67.12
2022-10-05T01:39:57.015Z,67.44
2022-10-05T01:41:03.547Z,67.31
2022-10-05T01:42:24.207Z,67.27
2022-10-05T01:43:32.802Z,67.26
2022-10-05T01:45:00.555Z,67.54
2022-10-05T01:46:06.670Z,68.31
2022-10-05T01:47:09.898Z,68.82
2022-10-05T01:48:11.334Z,68.39
2022-10-05T01:49:28.271Z,68.12
2022-10-05T01:50:51.608Z,68.05
2022-10-05T01:51:57.483Z,68.35
2022-10-05T01:53:04.859Z,68.27
2022-10-05T01:54:15.289Z,68.02
2022-10-05T01:55:25.786Z,68.00
2022-10-05T01:56:37.606Z,67.83
2022-10-05T01:57:39.143Z,67.75
2022-10-05T01:59:01.967Z,67.78
2022-10-05T02:00:07.711Z,67.62
2022-10-05T02:01:25.907Z,67.70
2022-10-05T02:02:28.060Z,67.31
2022-10-05T02:03:35.645Z,67.50
2022-10-05T02:05:01.365Z,67.54
2022-10-05T02:06:06.069Z,67.45
2022-10-05T02:07:09.232Z,67.50
2022-10-05T02:08:39.916Z,67.67
2022-10-05T02:09:43.722Z,68.11
2022-10-05T02:10:50.746Z,68.12
2022-10-05T02:11:54.696Z,67.89
2022-10-05T02:13:00.866Z,67.91
2022-10-05T02:14:06.935Z,68.03
2022-10-05T02:15:15.839Z,68.11
2022-10-05T02:16:26.050Z,68.03
2022-10-05T02:17:29.551Z,68.10
2022-10-05T02:18:32.866Z,68.14
2022-10-05T02:19:42.188Z,68.17
2022-10-05T02:20:43.656Z,68.02
2022-10-05T02:21:47.253Z,67.58
2022-10-05T02:22:53.563Z,67.40
2022-10-05T02:23:56.719Z,67.07
2022-10-05T02:24:59.228Z,67.06
2022-10-05T02:26:02.611Z,66.80
2022-10-05T02:27:05.401Z,66.51
2022-10-05T02:28:14.329Z,66.40
2022-10-05T02:29:16.677Z,66.15
2022-10-05T02:30:19.133Z,66.17
2022-10-05T02:31:27.896Z,66.19
2022-10-05T02:32:33.295Z,66.24
2022-10-05T02:33:34.853Z,66.47
2022-10-05T02:34:41.841Z,66.33
2022-10-05T02:35:59.343Z,66.52
2022-10-05T02:37:19.185Z,66.85
2022-10-05T02:38:39.298Z,67.21
2022-10-05T02:39:49.677Z,67.31
2022-10-05T02:40:57.695Z,67.23
2022-10-05T02:42:05.375Z,67.20
2022-10-05T02:43:11.587Z,67.40
2022-10-05T02:44:21.827Z,67.19
2022-10-05T02:45:36.356Z,67.49
2022-10-05T02:46:45.215Z,67.71
2022-10-05T02:48:13.205Z,67.95
2022-10-05T02:49:35.011Z,68.03
2022-10-05T02:50:43.852Z,67.89
2022-10-05T02:51:47.351Z,67.59
2022-10-05T02:52:48.843Z,67.64
2022-10-05T02:54:08.655Z,67.75
2022-10-05T02:55:15.892Z,67.61
2022-10-05T02:56:17.522Z,67.49
2022-10-05T02:57:28.852Z,67.53
2022-10-05T02:58:37.289Z,67.63
2022-10-05T02:59:40.228Z,67.96
2022-10-05T03:00:45.908Z,68.16
2022-10-05T03:01:49.758Z,68.92
2022-10-05T03:02:54.122Z,69.76
2022-10-05T03:03:58.632Z,70.31
2022-10-05T03:05:06.006Z,71.28
2022-10-05T03:06:13.307Z,71.45
2022-10-05T03:07:15.019Z,71.96
2022-10-05T03:08:18.307Z,71.88
2022-10-05T03:09:20.745Z,72.57
2022-10-05T03:10:25.974Z,71.91
2022-10-05T03:11:33.945Z,71.97
2022-10-05T03:12:41.588Z,72.11
2022-10-05T03:14:09.747Z,71.58
2022-10-05T03:15:23.865Z,70.93
2022-10-05T03:16:43.647Z,70.51
2022-10-05T03:17:48.594Z,69.71
2022-10-05T03:18:50.026Z,69.02
2022-10-05T03:19:54.707Z,69.25
2022-10-05T03:21:14.364Z,69.04
2022-10-05T03:22:19.792Z,69.11
2022-10-05T03:23:33.352Z,69.19
2022-10-05T03:24:35.415Z,69.14
2022-10-05T03:25:49.151Z,69.31
2022-10-05T03:26:56.784Z,69.04
2022-10-05T03:28:01.454Z,69.17
2022-10-05T03:29:09.160Z,69.29
2022-10-05T03:30:14.846Z,69.19
2022-10-05T03:31:23.647Z,68.90
2022-10-05T03:32:31.301Z,69.20
2022-10-05T03:33:38.831Z,68.99
2022-10-05T03:34:43.462Z,68.85
2022-10-05T03:35:45.176Z,68.53
2022-10-05T03:36:52.532Z,68.36
2022-10-05T03:38:01.009Z,68.56
2022-10-05T03:39:21.146Z,68.35
2022-10-05T03:40:26.231Z,68.14
2022-10-05T03:41:28.486Z,67.96
2022-10-05T03:42:29.961Z,68.12
2022-10-05T03:43:43.071Z,68.64
2022-10-05T03:44:44.710Z,68.33
2022-10-05T03:45:52.246Z,68.68
2022-10-05T03:47:09.044Z,68.74
2022-10-05T03:48:36.806Z,68.76
2022-10-05T03:49:43.580Z,69.29
2022-10-05T03:50:55.692Z,68.80
2022-10-05T03:52:09.242Z,69.17
2022-10-05T03:53:23.210Z,69.44
2022-10-05T03:54:26.234Z,69.84
2022-10-05T03:55:34.010Z,70.96
2022-10-05T03:56:39.570Z,71.22
2022-10-05T03:57:41.390Z,71.16
2022-10-05T03:58:45.125Z,71.31
2022-10-05T04:00:00.778Z,71.17
2022-10-05T04:01:05.656Z,71.36
2022-10-05T04:02:16.160Z,71.85
2022-10-05T04:03:23.815Z,72.63
2022-10-05T04:04:31.137Z,73.35
2022-10-05T04:05:34.459Z,73.03
2022-10-05T04:06:38.346Z,72.94
2022-10-05T04:07:46.742Z,73.22
2022-10-05T04:09:03.211Z,73.15
2022-10-05T04:10:06.012Z,73.63
2022-10-05T04:11:12.311Z,73.50
2022-10-05T04:12:24.748Z,73.68
2022-10-05T04:13:30.290Z,73.29
2022-10-05T04:14:37.056Z,73.38
2022-10-05T04:15:58.944Z,73.08
2022-10-05T04:17:09.770Z,72.85
2022-10-05T04:18:19.290Z,72.91
2022-10-05T04:19:25.507Z,72.64
2022-10-05T04:20:33.629Z,72.14
2022-10-05T04:21:38.188Z,72.29
2022-10-05T04:23:05.649Z,72.42
2022-10-05T04:24:30.531Z,73.04
2022-10-05T04:25:34.731Z,73.20
2022-10-05T04:26:38.141Z,73.41
2022-10-05T04:27:41.646Z,73.61
2022-10-05T04:28:46.446Z,73.85
2022-10-05T04:29:53.643Z,74.52
2022-10-05T04:30:55.228Z,74.79
2022-10-05T04:32:05.382Z,74.59
2022-10-05T04:33:10.840Z,74.99
2022-10-05T04:34:32.647Z,74.87
2022-10-05T04:35:38.146Z,74.83
2022-10-05T04:36:41.541Z,74.36
2022-10-05T04:38:02.313Z,73.89
2022-10-05T04:39:35.987Z,73.91
2022-10-05T04:40:53.516Z,73.50
2022-10-05T04:41:55.173Z,73.47
2022-10-05T04:42:56.710Z,73.12
2022-10-05T04:43:58.216Z,72.76
2022-10-05T04:45:04.666Z,72.63
2022-10-05T04:46:11.834Z,72.48
2022-10-05T04:47:28.394Z,71.97
2022-10-05T04:48:32.759Z,71.98
2022-10-05T04:49:49.549Z,71.79
2022-10-05T04:51:09.675Z,71.53
2022-10-05T04:52:20.108Z,71.56
2022-10-05T04:53:24.942Z,71.31
2022-10-05T04:54:30.691Z,71.31
2022-10-05T04:56:07.566Z,71.27
2022-10-05T04:57:23.765Z,71.13
2022-10-05T04:58:42.207Z,70.84
2022-10-05T04:59:59.370Z,70.32
2022-10-05T05:01:19.576Z,70.29
2022-10-05T05:02:21.205Z,69.59
2022-10-05T05:03:29.214Z,69.34
2022-10-05T05:04:33.559Z,69.34
2022-10-05T05:05:58.697Z,69.11
2022-10-05T05:07:11.284Z,69.15
2022-10-05T05:08:31.045Z,69.05
2022-10-05T05:09:56.140Z,69.55
2022-10-05T05:11:16.768Z,69.38
2022-10-05T05:12:24.571Z,69.39
2022-10-05T05:13:28.708Z,69.43
2022-10-05T05:14:31.138Z,69.09
2022-10-05T05:15:50.920Z,69.25
2022-10-05T05:17:04.151Z,69.19
2022-10-05T05:18:05.610Z,68.97
2022-10-05T05:19:26.154Z,69.06
2022-10-05T05:20:27.993Z,69.23
2022-10-05T05:21:38.077Z,69.51
2022-10-05T05:22:46.663Z,69.66
2022-10-05T05:23:57.580Z,69.46
2022-10-05T05:25:17.863Z,69.54
2022-10-05T05:26:29.953Z,69.84
2022-10-05T05:27:31.495Z,69.80
2022-10-05T05:28:50.530Z,69.71
2022-10-05T05:30:11.154Z,70.01
2022-10-05T05:31:15.709Z,70.28
2022-10-05T05:32:28.144Z,70.29
2022-10-05T05:33:41.742Z,70.31
2022-10-05T05:34:48.243Z,70.45
2022-10-05T05:36:01.683Z,70.52
2022-10-05T05:37:29.215Z,70.57
2022-10-05T05:38:35.239Z,70.58
2022-10-05T05:39:45.227Z,70.43
2022-10-05T05:40:52.367Z,70.29
2022-10-05T05:41:57.104Z,70.29
2022-10-05T05:43:02.868Z,70.09
2022-10-05T05:44:10.071Z,70.30
2022-10-05T05:45:23.834Z,70.45
2022-10-05T05:46:44.683Z,70.47
2022-10-05T05:47:52.140Z,70.44
2022-10-05T05:48:55.832Z,70.47
2022-10-05T05:49:57.378Z,70.64
2022-10-05T05:51:01.557Z,71.20
2022-10-05T05:52:21.329Z,71.32
2022-10-05T05:53:25.628Z,71.35
2022-10-05T05:54:43.108Z,71.68
2022-10-05T05:55:48.541Z,72.58
2022-10-05T05:56:51.891Z,73.28
2022-10-05T05:57:54.770Z,72.69
2022-10-05T05:59:03.735Z,72.49
2022-10-05T06:00:06.421Z,73.22
2022-10-05T06:01:34.248Z,72.88
2022-10-05T06:03:06.157Z,73.05
2022-10-05T06:04:10.550Z,73.25
2022-10-05T06:05:21.459Z,73.08
2022-10-05T06:06:24.571Z,73.71
2022-10-05T06:07:30.523Z,73.76
2022-10-05T06:08:40.040Z,73.53
2022-10-05T06:10:04.379Z,73.55
2022-10-05T06:11:15.185Z,74.24
2022-10-05T06:12:18.254Z,74.38
2022-10-05T06:13:24.685Z,74.47
2022-10-05T06:14:33.282Z,74.47
2022-10-05T06:15:41.927Z,74.26
2022-10-05T06:16:47.723Z,74.22
2022-10-05T06:17:54.689Z,74.10
2022-10-05T06:18:58.653Z,73.90
2022-10-05T06:20:04.968Z,73.78
2022-10-05T06:21:14.641Z,73.69
2022-10-05T06:22:18.216Z,73.78
2022-10-05T06:23:22.122Z,73.79
2022-10-05T06:24:25.715Z,73.81
2022-10-05T06:25:30.023Z,73.68
2022-10-05T06:26:34.798Z,73.91
2022-10-05T06:27:57.553Z,74.21
2022-10-05T06:29:00.952Z,74.49
2022-10-05T06:30:20.894Z,74.58
2022-10-05T06:31:36.846Z,74.32
2022-10-05T06:32:50.401Z,74.40
2022-10-05T06:33:54.257Z,74.76
2022-10-05T06:35:03.980Z,75.10
2022-10-05T06:36:09.631Z,75.07
2022-10-05T06:37:12.966Z,75.30
2022-10-05T06:38:32.287Z,75.25
2022-10-05T06:39:33.838Z,75.02
2022-10-05T06:40:36.187Z,74.99
2022-10-05T06:41:47.861Z,75.45
2022-10-05T06:42:49.290Z,75.03
2022-10-05T06:43:56.276Z,74.73
2022-10-05T06:45:23.164Z,75.40
2022-10-05T06:46:50.687Z,75.80
2022-10-05T06:48:31.155Z,75.74
2022-10-05T06:50:04.251Z,75.13
2022-10-05T06:51:31.393Z,75.03
2022-10-05T06:52:42.717Z,74.96
2022-10-05T06:53:48.163Z,75.06
2022-10-05T06:54:52.168Z,75.25
2022-10-05T06:55:57.979Z,75.23
2022-10-05T06:57:04.620Z,75.99
2022-10-05T06:58:06.483Z,76.14
2022-10-05T06:59:28.379Z,76.38
2022-10-05T07:00:59.621Z,76.71
2022-10-05T07:02:10.233Z,76.91
2022-10-05T07:03:23.763Z,77.60
2022-10-05T07:04:43.929Z,78.00
2022-10-05T07:05:47.979Z,78.00
2022-10-05T07:06:51.247Z,77.93
2022-10-05T07:08:00.149Z,77.66
2022-10-05T07:09:01.983Z,77.33
2022-10-05T07:10:04.590Z,77.16
2022-10-05T07:11:24.621Z,77.13
2022-10-05T07:12:33.240Z,76.87
2022-10-05T07:13:47.588Z,76.59
2022-10-05T07:15:07.744Z,77.20
2022-10-05T07:16:15.212Z,77.36
2022-10-05T07:17:33.643Z,77.34
2022-10-05T07:18:56.707Z,77.63
2022-10-05T07:20:16.558Z,77.71
2022-10-05T07:21:23.953Z,77.51
2022-10-05T07:22:37.452Z,77.17
2022-10-05T07:23:45.557Z,77.33
2022-10-05T07:24:47.031Z,77.75
2022-10-05T07:25:59.283Z,77.72
2022-10-05T07:27:12.762Z,77.72
2022-10-05T07:28:18.287Z,77.59
2022-10-05T07:29:22.040Z,77.41
2022-10-05T07:30:23.552Z,77.31
2022-10-05T07:31:42.886Z,77.17
2022-10-05T07:32:44.380Z,76.98
2022-10-05T07:33:53.353Z,77.47
2022-10-05T07:35:01.359Z,77.23
2022-10-05T07:36:27.898Z,75.99
2022-10-05T07:37:55.593Z,76.37
2022-10-05T07:39:05.551Z,76.54
2022-10-05T07:40:10.653Z,76.29
2022-10-05T07:41:20.094Z,76.00
2022-10-05T07:42:31.636Z,75.91
2022-10-05T07:43:57.954Z,75.73
2022-10-05T07:45:02.072Z,75.10
2022-10-05T07:46:07.326Z,75.21
2022-10-05T07:47:10.498Z,75.12
2022-10-05T07:48:13.802Z,74.25
2022-10-05T07:49:33.933Z,73.96
2022-10-05T07:50:38.519Z,73.74
2022-10-05T07:51:45.142Z,73.68
2022-10-05T07:52:48.886Z,73.66
2022-10-05T07:54:10.608Z,73.48
2022-10-05T07:55:30.038Z,73.02
2022-10-05T07:56:41.634Z,72.72
2022-10-05T07:57:49.664Z,72.89
2022-10-05T07:59:04.227Z,73.57
2022-10-05T08:00:24.527Z,73.70
2022-10-05T08:01:29.639Z,74.41
2022-10-05T08:02:53.566Z,74.43
2022-10-05T08:04:02.522Z,74.30
2022-10-05T08:05:04.156Z,74.77
2022-10-05T08:06:05.866Z,74.75
2022-10-05T08:07:07.581Z,73.91
2022-10-05T08:08:16.849Z,74.08
2022-10-05T08:09:32.903Z,72.99
2022-10-05T08:10:41.911Z,72.75
2022-10-05T08:11:52.448Z,72.57
2022-10-05T08:13:14.998Z,72.94
2022-10-05T08:14:28.796Z,72.68
2022-10-05T08:15:32.026Z,72.42
2022-10-05T08:16:35.207Z,72.69
2022-10-05T08:17:45.780Z,72.62
2022-10-05T08:19:03.547Z,72.25
2022-10-05T08:20:16.457Z,72.44
2022-10-05T08:21:19.939Z,72.70
2022-10-05T08:22:24.899Z,72.53
2022-10-05T08:23:36.036Z,72.62
2022-10-05T08:24:46.183Z,71.93
2022-10-05T08:25:50.293Z,71.64
2022-10-05T08:26:53.003Z,71.05
2022-10-05T08:28:03.470Z,70.69
2022-10-05T08:29:23.806Z,70.87
2022-10-05T08:30:25.325Z,70.52
2022-10-05T08:31:27.248Z,70.29
2022-10-05T08:32:31.879Z,70.54
2022-10-05T08:33:56.685Z,70.39
2022-10-05T08:35:01.904Z,70.83
2022-10-05T08:36:07.661Z,70.68
2022-10-05T08:37:09.188Z,70.65
2022-10-05T08:38:17.369Z,70.65
2022-10-05T08:39:19.198Z,70.70
2022-10-05T08:40:39.621Z,69.91
2022-10-05T08:41:41.055Z,69.83
2022-10-05T08:42:57.683Z,69.35
2022-10-05T08:44:02.271Z,69.22
2022-10-05T08:45:06.726Z,69.56
2022-10-05T08:46:31.504Z,69.59
2022-10-05T08:47:45.610Z,69.74
2022-10-05T08:48:53.184Z,69.24
2022-10-05T08:50:13.682Z,69.64
2022-10-05T08:51:15.223Z,69.89
2022-10-05T08:52:16.976Z,70.07
2022-10-05T08:53:19.289Z,70.11
2022-10-05T08:54:32.603Z,70.32
2022-10-05T08:55:45.388Z,70.41
2022-10-05T08:56:50.896Z,70.98
2022-10-05T08:58:12.823Z,71.37
2022-10-05T08:59:20.402Z,71.63
2022-10-05T09:00:22.549Z,71.24
2022-10-05T09:01:31.220Z,71.65
2022-10-05T09:02:41.597Z,71.91
2022-10-05T09:03:46.942Z,71.27
2022-10-05T09:04:54.217Z,70.82
2022-10-05T09:05:58.426Z,70.92
2022-10-05T09:07:10.718Z,70.24
2022-10-05T09:08:14.904Z,70.07
2022-10-05T09:09:23.293Z,69.80
2022-10-05T09:10:30.734Z,70.23
2022-10-05T09:11:41.790Z,69.05
2022-10-05T09:12:52.155Z,69.23
2022-10-05T09:13:53.858Z,69.50
2022-10-05T09:15:20.953Z,68.92
2022-10-05T09:16:27.050Z,68.67
2022-10-05T09:17:39.346Z,68.82
2022-10-05T09:18:56.153Z,69.50
2022-10-05T09:20:08.543Z,69.87
2022-10-05T09:21:28.420Z,69.97
2022-10-05T09:22:35.281Z,69.10
2022-10-05T09:23:40.336Z,69.33
2022-10-05T09:24:53.859Z,69.56
2022-10-05T09:26:01.314Z,68.40
2022-10-05T09:27:10.230Z,68.45
2022-10-05T09:28:18.174Z,67.75
2022-10-05T09:29:38.413Z,67.68
2022-10-05T09:30:48.956Z,66.29
2022-10-05T09:31:50.767Z,66.34
2022-10-05T09:32:55.328Z,66.09
2022-10-05T09:34:02.620Z,66.49
2022-10-05T09:35:22.962Z,65.82
2022-10-05T09:36:28.001Z,66.43
2022-10-05T09:37:29.458Z,66.79
2022-10-05T09:38:33.681Z,66.72
2022-10-05T09:39:55.776Z,66.26
2022-10-05T09:40:59.260Z,65.63
2022-10-05T09:42:19.678Z,65.85
2022-10-05T09:43:40.196Z,65.47
2022-10-05T09:44:47.652Z,65.40
2022-10-05T09:46:07.810Z,65.65
2022-10-05T09:47:09.359Z,66.35
2022-10-05T09:48:36.671Z,65.93
2022-10-05T09:49:43.891Z,65.62
2022-10-05T09:51:04.118Z,65.46
2022-10-05T09:52:08.715Z,65.69
2022-10-05T09:53:10.123Z,65.50
2022-10-05T09:54:11.555Z,66.04
2022-10-05T09:55:31.675Z,66.04
2022-10-05T09:56:34.533Z,66.42
2022-10-05T09:57:53.147Z,65.67
2022-10-05T09:58:57.767Z,65.33
2022-10-05T10:00:09.690Z,64.75
2022-10-05T10:01:36.383Z,64.94
2022-10-05T10:02:58.340Z,65.05
2022-10-05T10:04:10.150Z,64.64
2022-10-05T10:05:19.983Z,64.70
2022-10-05T10:06:40.287Z,64.45
2022-10-05T10:07:41.750Z,64.40
2022-10-05T10:08:46.253Z,64.46
2022-10-05T10:10:06.409Z,65.09
2022-10-05T10:11:16.920Z,65.19
2022-10-05T10:12:36.989Z,65.37
2022-10-05T10:13:55.844Z,65.90
2022-10-05T10:15:15.793Z,66.28
2022-10-05T10:16:35.859Z,66.26
2022-10-05T10:17:40.179Z,66.05
2022-10-05T10:18:49.728Z,65.95
2022-10-05T10:19:51.151Z,65.96
2022-10-05T10:20:58.688Z,66.08
2022-10-05T10:22:18.798Z,66.00
2022-10-05T10:23:24.803Z,65.86
2022-10-05T10:24:26.220Z,65.97
2022-10-05T10:25:46.736Z,66.04
2022-10-05T10:27:02.709Z,65.90
2022-10-05T10:28:15.195Z,65.96
2022-10-05T10:29:19.518Z,66.03
2022-10-05T10:30:21.878Z,65.98
2022-10-05T10:31:24.696Z,66.31
2022-10-05T10:32:47.291Z,66.78
2022-10-05T10:34:07.611Z,66.89
2022-10-05T10:35:15.700Z,66.80
2022-10-05T10:36:40.177Z,67.08
2022-10-05T10:38:00.049Z,67.27
2022-10-05T10:39:07.610Z,67.49
2022-10-05T10:40:09.078Z,67.14
2022-10-05T10:41:13.599Z,66.83
2022-10-05T10:42:22.576Z,66.15
2022-10-05T10:43:32.839Z,66.19
2022-10-05T10:44:53.029Z,65.96
2022-10-05T10:46:07.967Z,66.24
2022-10-05T10:47:12.227Z,66.13
2022-10-05T10:48:19.628Z,65.02
2022-10-05T10:49:39.790Z,64.90
2022-10-05T10:50:59.838Z,63.29
2022-10-05T10:52:04.100Z,64.40
2022-10-05T10:53:10.376Z,63.15
2022-10-05T10:54:30.940Z,62.90
2022-10-05T10:55:35.431Z,62.44
2022-10-05T10:56:39.518Z,61.65
2022-10-05T10:57:40.981Z,61.75
2022-10-05T10:58:45.159Z,61.45
2022-10-05T10:59:58.751Z,61.52
2022-10-05T11:01:03.129Z,61.58
2022-10-05T11:02:19.655Z,61.92
2022-10-05T11:03:40.218Z,60.93
2022-10-05T11:05:01.759Z,60.64
2022-10-05T11:06:21.352Z,60.25
2022-10-05T11:07:31.954Z,60.63
2022-10-05T11:08:52.032Z,60.45
2022-10-05T11:09:56.332Z,60.62
2022-10-05T11:11:00.414Z,61.04
2022-10-05T11:12:01.921Z,60.96
2022-10-05T11:13:05.932Z,60.44
2022-10-05T11:14:07.348Z,59.95
2022-10-05T11:15:21.019Z,60.19
2022-10-05T11:16:25.337Z,60.52
2022-10-05T11:17:45.630Z,60.97
2022-10-05T11:18:47.109Z,60.95
2022-10-05T11:20:05.285Z,60.92
2022-10-05T11:21:16.806Z,59.64
2022-10-05T11:22:38.444Z,60.63
2022-10-05T11:23:51.003Z,60.86
2022-10-05T11:25:04.423Z,60.98
2022-10-05T11:26:11.801Z,60.40
2022-10-05T11:27:36.909Z,60.85
2022-10-05T11:28:41.403Z,61.22
2022-10-05T11:29:45.934Z,60.99
2022-10-05T11:31:10.139Z,60.95
2022-10-05T11:32:19.026Z,60.76
2022-10-05T11:33:29.280Z,60.58
2022-10-05T11:34:49.532Z,60.84
2022-10-05T11:36:08.820Z,60.77
2022-10-05T11:37:10.256Z,61.42
2022-10-05T11:38:30.023Z,61.73
2022-10-05T11:39:43.684Z,61.92
2022-10-05T11:40:55.855Z,60.75
2022-10-05T11:42:00.603Z,60.65
2022-10-05T11:43:20.402Z,60.96
2022-10-05T11:44:27.678Z,61.04
2022-10-05T11:45:29.087Z,60.97
2022-10-05T11:46:44.519Z,61.00
2022-10-05T11:48:05.072Z,61.11
2022-10-05T11:49:09.331Z,61.28
2022-10-05T11:50:20.382Z,61.65
2022-10-05T11:51:25.235Z,61.94
2022-10-05T11:52:39.225Z,61.67
2022-10-05T11:53:40.674Z,61.73
2022-10-05T11:55:11.802Z,62.17
2022-10-05T11:56:22.644Z,60.38
2022-10-05T11:57:28.782Z,61.02
2022-10-05T11:59:02.818Z,60.19
2022-10-05T12:00:10.114Z,60.36
2022-10-05T12:01:11.491Z,60.06
2022-10-05T12:02:31.568Z,60.15
2022-10-05T12:04:02.325Z,60.61
2022-10-05T12:05:11.239Z,60.80
2022-10-05T12:06:15.315Z,60.44
2022-10-05T12:07:20.407Z,60.57
2022-10-05T12:08:40.409Z,59.96
2022-10-05T12:10:12.746Z,60.17
2022-10-05T12:11:33.014Z,60.72
2022-10-05T12:12:38.544Z,60.73
2022-10-05T12:13:43.423Z,60.18
2022-10-05T12:14:56.933Z,60.00
2022-10-05T12:16:04.420Z,60.07
2022-10-05T12:17:11.252Z,60.71
2022-10-05T12:18:39.439Z,60.64
2022-10-05T12:19:48.463Z,60.37
2022-10-05T12:20:52.298Z,60.40
2022-10-05T12:21:59.886Z,60.63
2022-10-05T12:23:10.929Z,61.47
2022-10-05T12:24:12.846Z,60.71
2022-10-05T12:25:32.923Z,60.16
2022-10-05T12:26:42.115Z,59.97
2022-10-05T12:27:46.189Z,60.32
2022-10-05T12:28:49.209Z,58.79
2022-10-05T12:29:53.211Z,59.33
2022-10-05T12:31:00.357Z,59.14
2022-10-05T12:32:03.009Z,58.50
2022-10-05T12:33:07.642Z,58.55
2022-10-05T12:34:12.759Z,58.73
2022-10-05T12:35:14.245Z,59.31
2022-10-05T12:36:26.348Z,58.30
2022-10-05T12:37:36.548Z,58.08
2022-10-05T12:38:38.558Z,58.25
2022-10-05T12:39:56.798Z,57.95
2022-10-05T12:41:17.123Z,58.68
2022-10-05T12:42:29.126Z,58.36
2022-10-05T12:43:46.192Z,57.96
2022-10-05T12:45:07.041Z,58.32
2022-10-05T12:46:11.373Z,58.18
2022-10-05T12:47:17.110Z,58.33
2022-10-05T12:48:25.068Z,58.92
2022-10-05T12:49:42.920Z,59.81
2022-10-05T12:50:47.509Z,58.59
2022-10-05T12:51:49.375Z,58.59
2022-10-05T12:53:03.065Z,58.93
2022-10-05T12:54:23.069Z,59.38
2022-10-05T12:55:26.261Z,59.30
2022-10-05T12:56:33.612Z,59.28
2022-10-05T12:57:41.181Z,58.95
2022-10-05T12:58:42.707Z,58.66
2022-10-05T12:59:50.056Z,58.47
2022-10-05T13:00:57.336Z,57.48
2022-10-05T13:02:17.521Z,57.86
2022-10-05T13:03:24.310Z,58.06
2022-10-05T13:04:35.595Z,57.94
2022-10-05T13:05:44.767Z,57.92
2022-10-05T13:06:50.140Z,57.56
2022-10-05T13:08:06.936Z,56.67
2022-10-05T13:09:10.161Z,57.50
2022-10-05T13:10:11.625Z,58.04
2022-10-05T13:11:21.317Z,57.86
2022-10-05T13:12:23.056Z,57.28
2022-10-05T13:13:24.553Z,57.43
2022-10-05T13:14:45.332Z,57.54
2022-10-05T13:16:05.519Z,58.37
2022-10-05T13:17:13.223Z,57.91
2022-10-05T13:18:14.759Z,57.78
2022-10-05T13:19:19.536Z,57.07
2022-10-05T13:20:24.109Z,55.64
2022-10-05T13:21:34.538Z,55.83
2022-10-05T13:22:46.621Z,55.96
2022-10-05T13:24:08.408Z,56.36
2022-10-05T13:25:28.462Z,56.77
2022-10-05T13:26:33.970Z,56.56
2022-10-05T13:27:36.700Z,55.73
2022-10-05T13:28:53.290Z,55.83
2022-10-05T13:29:56.370Z,56.12
2022-10-05T13:31:01.108Z,55.21
2022-10-05T13:32:02.552Z,54.75
2022-10-05T13:33:07.416Z,55.28
2022-10-05T13:34:21.278Z,55.47
2022-10-05T13:35:25.853Z,55.63
2022-10-05T13:36:27.285Z,55.21
2022-10-05T13:37:40.987Z,54.97
2022-10-05T13:38:56.786Z,55.86
2022-10-05T13:40:16.800Z,55.93
2022-10-05T13:41:23.660Z,56.13
2022-10-05T13:42:28.795Z,55.55
2022-10-05T13:44:42.471Z,55.99
2022-10-05T13:45:47.120Z,56.02
2022-10-05T13:46:49.759Z,55.79
2022-10-05T13:47:51.215Z,55.93
2022-10-05T13:49:04.843Z,55.61
2022-10-05T13:50:10.273Z,55.80
2022-10-05T13:51:11.958Z,55.34
2022-10-05T13:52:35.067Z,55.62
2022-10-05T13:53:45.585Z,55.52
2022-10-05T13:55:13.232Z,55.60
2022-10-05T13:56:21.655Z,55.62
2022-10-05T13:57:29.944Z,55.48
2022-10-05T13:59:00.677Z,55.63
2022-10-05T14:00:03.594Z,55.67
2022-10-05T14:01:13.511Z,55.48
2022-10-05T14:02:20.188Z,55.04
2022-10-05T14:03:27.660Z,54.96
2022-10-05T14:04:30.009Z,55.47
2022-10-05T14:05:31.547Z,55.48
2022-10-05T14:06:33.167Z,55.33
2022-10-05T14:07:34.990Z,55.60
2022-10-05T14:08:45.301Z,54.94
2022-10-05T14:09:47.720Z,54.97
2022-10-05T14:10:49.183Z,55.36
2022-10-05T14:12:02.502Z,55.75
2022-10-05T14:13:22.576Z,55.65
2022-10-05T14:14:25.033Z,56.00
2022-10-05T14:15:30.669Z,55.77
2022-10-05T14:16:33.258Z,55.24
2022-10-05T14:17:34.805Z,54.10
2022-10-05T14:18:36.835Z,54.75
2022-10-05T14:19:42.124Z,55.38
2022-10-05T14:20:56.619Z,55.38
2022-10-05T14:22:02.163Z,54.81
2022-10-05T14:23:05.963Z,55.22
2022-10-05T14:24:42.306Z,55.69
2022-10-05T14:25:53.653Z,54.69
2022-10-05T14:26:55.288Z,53.84
2022-10-05T14:28:11.847Z,51.04
2022-10-05T14:29:19.336Z,52.16
2022-10-05T14:30:23.546Z,52.34
2022-10-05T14:31:28.898Z,52.87
2022-10-05T14:32:31.487Z,52.62
2022-10-05T14:33:33.641Z,52.29
2022-10-05T14:34:35.926Z,52.94
2022-10-05T14:35:48.921Z,51.25
2022-10-05T14:36:54.879Z,49.58
2022-10-05T14:37:56.359Z,48.62
2022-10-05T14:39:00.499Z,48.51
2022-10-05T14:40:03.360Z,50.03
2022-10-05T14:41:06.094Z,49.40
2022-10-05T14:42:15.096Z,49.94
2022-10-05T14:43:16.504Z,50.07
2022-10-05T14:44:17.942Z,48.44
2022-10-05T14:45:19.949Z,47.73
2022-10-05T14:46:25.353Z,48.64
2022-10-05T14:47:30.449Z,48.12
2022-10-05T14:48:40.898Z,48.96
2022-10-05T14:49:48.813Z,47.93
2022-10-05T14:51:13.222Z,48.79
2022-10-05T14:52:32.533Z,48.36
2022-10-05T14:53:38.454Z,49.12
2022-10-05T14:54:41.230Z,47.90
2022-10-05T14:55:55.781Z,47.09
2022-10-05T14:57:04.367Z,48.00
2022-10-05T14:58:10.126Z,47.52
2022-10-05T14:59:22.232Z,47.55